Time;durP1;ratioP1;P1;durP2;ratioP2;P2;SDS_P1;SDS_P2;PMS_P1;PMS_P2;Temp;Humidity;BMP_temperature;BMP_pressure;BME280_temperature;BME280_humidity;BME280_pressure;Samples;Min_cycle;Max_cycle;Signal;HPM_P1;HPM_P2
2023/01/22 00:02:11;;;;;;;8.70;7.20;;;;;;;9.52;97.43;94694.28;5013201;28;20451;-82
2023/01/22 00:04:38;;;;;;;14.73;8.10;;;;;;;9.54;97.27;94702.00;5013320;28;20489;-82
2023/01/22 00:07:05;;;;;;;12.20;8.90;;;;;;;9.56;97.68;94716.66;5013181;28;20456;-82
2023/01/22 00:09:32;;;;;;;11.13;8.97;;;;;;;9.56;97.66;94711.44;5013093;28;20958;-82
2023/01/22 00:12:00;;;;;;;11.30;9.33;;;;;;;9.51;96.92;94703.09;5013099;28;20801;-83
2023/01/22 00:14:27;;;;;;;12.57;8.60;;;;;;;9.56;97.94;94705.34;5013211;28;20459;-82
2023/01/22 00:16:53;;;;;;;15.80;8.57;;;;;;;9.55;98.24;94704.53;5012878;28;20447;-83
2023/01/22 00:19:20;;;;;;;9.87;8.83;;;;;;;9.52;98.76;94698.69;5013132;28;20451;-82
2023/01/22 00:21:47;;;;;;;10.80;9.40;;;;;;;9.54;99.75;94700.25;5012913;28;20443;-82
2023/01/22 00:24:14;;;;;;;16.97;12.40;;;;;;;9.58;99.94;94698.19;5015900;28;20505;-82
2023/01/22 00:26:41;;;;;;;19.30;12.90;;;;;;;9.55;98.97;94701.09;5032364;28;20991;-82
2023/01/22 00:29:09;;;;;;;14.03;11.40;;;;;;;9.59;99.12;94705.09;5032462;28;20442;-82
2023/01/22 00:31:37;;;;;;;13.00;9.10;;;;;;;9.61;99.31;94695.31;5032625;28;20454;-82
2023/01/22 00:34:04;;;;;;;12.97;9.60;;;;;;;9.67;99.36;94692.19;5032196;28;20802;-82
2023/01/22 00:36:31;;;;;;;11.40;7.90;;;;;;;9.67;99.32;94681.69;5032645;28;20449;-82
2023/01/22 00:38:57;;;;;;;9.90;7.63;;;;;;;9.68;98.83;94693.84;5032539;28;20801;-82
2023/01/22 00:41:24;;;;;;;12.57;8.20;;;;;;;9.70;98.39;94699.78;5032236;28;20431;-82
2023/01/22 00:43:51;;;;;;;10.00;7.20;;;;;;;9.69;98.44;94713.00;5032150;28;20495;-82
2023/01/22 00:46:21;;;;;;;13.40;8.80;;;;;;;9.68;98.67;94720.03;5032478;28;20442;-82
2023/01/22 00:48:49;;;;;;;14.37;10.17;;;;;;;9.48;98.77;94718.25;4981370;28;20442;-82
2023/01/22 00:51:15;;;;;;;27.13;20.43;;;;;;;9.41;99.64;94717.09;5032424;28;20529;-82
2023/01/22 00:53:43;;;;;;;28.87;20.10;;;;;;;9.38;100.00;94719.97;5031744;28;20442;-82
2023/01/22 00:56:11;;;;;;;29.10;17.97;;;;;;;9.33;100.00;94715.13;5032009;28;21013;-82
2023/01/22 00:58:38;;;;;;;18.60;13.30;;;;;;;9.27;100.00;94726.94;4997189;28;20450;-82
2023/01/22 01:01:06;;;;;;;32.87;17.90;;;;;;;9.24;100.00;94740.25;5032210;28;20444;-82
2023/01/22 01:03:36;;;;;;;27.87;16.60;;;;;;;9.27;100.00;94740.03;5032249;28;20488;-82
2023/01/22 01:06:05;;;;;;;21.57;15.17;;;;;;;9.28;100.00;94740.88;5032363;28;20453;-82
2023/01/22 01:08:35;;;;;;;14.57;11.50;;;;;;;9.27;100.00;94745.25;5031937;28;20446;-82
2023/01/22 01:11:04;;;;;;;17.80;10.20;;;;;;;9.34;100.00;94750.00;5031890;28;20450;-82
2023/01/22 01:13:36;;;;;;;16.90;10.60;;;;;;;9.34;100.00;94753.44;5031929;28;20812;-82
2023/01/22 01:16:06;;;;;;;16.73;9.70;;;;;;;9.35;100.00;94743.78;5032191;28;20533;-82
2023/01/22 01:18:35;;;;;;;13.50;8.00;;;;;;;9.35;99.67;94736.78;5032054;28;20452;-82
2023/01/22 01:21:03;;;;;;;11.53;8.07;;;;;;;9.37;100.00;94736.66;5032403;28;20444;-82
2023/01/22 01:23:31;;;;;;;11.00;7.57;;;;;;;9.37;100.00;94747.94;5031790;28;20453;-81
2023/01/22 01:25:58;;;;;;;15.10;10.10;;;;;;;9.39;99.09;94761.75;5032303;28;20493;-82
2023/01/22 01:28:27;;;;;;;11.10;8.23;;;;;;;9.37;99.15;94760.22;5031938;28;20448;-82
2023/01/22 01:30:54;;;;;;;7.80;7.00;;;;;;;9.30;99.60;94763.34;5032220;28;20859;-82
2023/01/22 01:33:21;;;;;;;11.97;8.90;;;;;;;9.27;98.77;94771.44;5031842;28;20744;-82
2023/01/22 01:35:49;;;;;;;11.73;8.50;;;;;;;9.24;99.50;94769.06;5031751;28;20439;-82
2023/01/22 01:38:16;;;;;;;10.10;7.70;;;;;;;9.21;99.83;94766.69;5032021;28;20458;-82
2023/01/22 01:40:50;;;;;;;16.63;9.43;;;;;;;9.21;100.00;94765.84;5031636;28;20446;-82
2023/01/22 01:43:17;;;;;;;10.47;7.50;;;;;;;9.22;100.00;94764.91;5031689;28;20454;-82
2023/01/22 01:45:45;;;;;;;8.80;7.60;;;;;;;9.23;100.00;94767.38;5031657;28;20493;-82
2023/01/22 01:48:26;;;;;;;7.53;6.17;;;;;;;9.21;100.00;94764.06;5031842;28;20450;-82
2023/01/22 01:50:59;;;;;;;12.13;7.50;;;;;;;9.22;100.00;94770.97;5032202;28;20713;-82
2023/01/22 01:53:26;;;;;;;13.53;7.10;;;;;;;9.16;99.76;94766.22;5031579;28;20999;-82
2023/01/22 01:55:55;;;;;;;9.90;6.63;;;;;;;9.22;100.00;94770.13;5031842;28;20454;-82
2023/01/22 01:58:22;;;;;;;9.43;6.70;;;;;;;9.19;100.00;94767.78;5031429;28;20464;-82
2023/01/22 02:00:53;;;;;;;8.60;7.10;;;;;;;9.14;100.00;94773.38;5031629;28;20446;-82
2023/01/22 02:03:21;;;;;;;11.73;7.40;;;;;;;9.12;100.00;94769.22;4997350;28;20602;-82
2023/01/22 02:05:48;;;;;;;7.63;6.00;;;;;;;9.10;100.00;94763.28;5034962;28;20486;-82
2023/01/22 02:08:17;;;;;;;9.70;7.00;;;;;;;9.05;100.00;94768.91;4983959;28;20430;-82
2023/01/22 02:10:44;;;;;;;9.70;6.70;;;;;;;8.94;100.00;94767.13;5035477;28;20446;-82
2023/01/22 02:13:15;;;;;;;6.77;5.60;;;;;;;8.88;100.00;94764.19;5035040;28;20454;-82
2023/01/22 02:15:42;;;;;;;9.73;6.17;;;;;;;8.85;100.00;94765.25;5035001;28;20512;-82
2023/01/22 02:18:09;;;;;;;8.27;6.27;;;;;;;8.83;99.97;94768.97;5035195;28;20453;-82
2023/01/22 02:20:39;;;;;;;7.63;6.00;;;;;;;8.82;99.94;94773.34;5034786;28;21006;-82
2023/01/22 02:23:06;;;;;;;6.10;5.50;;;;;;;8.81;100.00;94773.47;5034884;28;20495;-82
2023/01/22 02:25:34;;;;;;;8.10;5.57;;;;;;;8.81;100.00;94782.16;5034536;28;20504;-82
2023/01/22 02:28:00;;;;;;;5.87;5.20;;;;;;;8.80;100.00;94775.28;5034504;28;20453;-82
2023/01/22 02:30:27;;;;;;;7.80;5.00;;;;;;;8.79;100.00;94776.22;5034504;28;20573;-82
2023/01/22 02:32:57;;;;;;;7.60;4.90;;;;;;;8.78;99.71;94786.81;5034803;28;20456;-82
2023/01/22 02:35:24;;;;;;;6.17;4.93;;;;;;;8.75;100.00;94781.81;5034791;28;20460;-83
2023/01/22 02:37:52;;;;;;;6.40;4.93;;;;;;;8.66;100.00;94784.19;5015826;28;20463;-82
2023/01/22 02:40:19;;;;;;;6.93;4.80;;;;;;;8.54;100.00;94782.56;5034394;28;20459;-82
2023/01/22 02:42:46;;;;;;;12.97;7.10;;;;;;;8.27;100.00;94787.28;5034569;28;20453;-83
2023/01/22 02:45:12;;;;;;;14.40;9.13;;;;;;;8.01;100.00;94787.50;5016032;28;20879;-82
2023/01/22 02:47:39;;;;;;;13.53;9.50;;;;;;;8.19;100.00;94792.28;5034264;28;20444;-82
2023/01/22 02:50:07;;;;;;;10.43;8.50;;;;;;;8.23;100.00;94785.88;5034404;28;20506;-82
2023/01/22 02:52:34;;;;;;;14.43;9.10;;;;;;;8.21;100.00;94793.00;5034453;28;20452;-82
2023/01/22 02:55:02;;;;;;;15.83;9.17;;;;;;;8.18;100.00;94793.22;5034196;28;20455;-82
2023/01/22 02:57:30;;;;;;;12.60;6.87;;;;;;;8.16;100.00;94795.13;5015569;28;20440;-82
2023/01/22 02:59:57;;;;;;;10.17;7.00;;;;;;;8.18;100.00;94798.47;5034369;28;20502;-82
2023/01/22 03:02:24;;;;;;;11.77;7.30;;;;;;;8.19;100.00;94794.91;5034076;28;20445;-82
2023/01/22 03:04:51;;;;;;;7.90;6.30;;;;;;;8.23;100.00;94799.75;5034098;28;20489;-82
2023/01/22 03:07:18;;;;;;;8.73;6.30;;;;;;;8.28;100.00;94796.78;5034148;28;20450;-81
2023/01/22 03:09:45;;;;;;;7.87;5.77;;;;;;;8.38;100.00;94795.16;5034304;28;20452;-82
2023/01/22 03:12:13;;;;;;;8.13;5.40;;;;;;;8.43;100.00;94792.19;5034855;28;20524;-82
2023/01/22 03:22:54;;;;;;;7.10;5.33;;;;;;;8.40;100.00;94798.50;5033719;28;20855;-82
2023/01/22 03:25:21;;;;;;;9.53;7.17;;;;;;;8.46;100.00;94805.88;5033405;28;21004;-82
2023/01/22 03:30:35;;;;;;;5.87;4.10;;;;;;;8.54;100.00;94805.25;4991826;28;20470;-83
2023/01/22 03:33:02;;;;;;;8.60;4.90;;;;;;;8.50;100.00;94804.66;4959206;28;20458;-82
2023/01/22 03:35:29;;;;;;;4.97;4.00;;;;;;;8.39;100.00;94796.84;4991852;28;20445;-82
2023/01/22 03:37:55;;;;;;;6.80;5.40;;;;;;;8.21;100.00;94795.59;4991868;28;20449;-82
2023/01/22 03:40:22;;;;;;;5.13;4.70;;;;;;;8.30;100.00;94797.50;4991867;28;20851;-82
2023/01/22 03:42:50;;;;;;;6.40;5.33;;;;;;;8.33;100.00;94805.09;4991327;28;20934;-82
2023/01/22 03:45:17;;;;;;;8.50;5.17;;;;;;;8.37;100.00;94793.50;4991684;28;20485;-82
2023/01/22 03:47:44;;;;;;;5.20;4.70;;;;;;;8.39;100.00;94796.84;4991506;28;20972;-82
2023/01/22 03:50:11;;;;;;;7.43;6.07;;;;;;;8.46;100.00;94792.78;4992169;28;20512;-80
2023/01/22 03:52:37;;;;;;;7.20;4.23;;;;;;;8.56;100.00;94798.97;4960356;28;20450;-86
2023/01/22 03:55:05;;;;;;;5.70;5.00;;;;;;;8.67;100.00;94796.34;4992091;28;20882;-81
2023/01/22 03:57:32;;;;;;;7.77;5.40;;;;;;;8.67;100.00;94800.72;4991472;28;20461;-81
2023/01/22 04:00:00;;;;;;;8.43;5.33;;;;;;;8.63;100.00;94801.91;4958785;28;20456;-80
2023/01/22 04:02:27;;;;;;;5.73;4.70;;;;;;;8.60;100.00;94799.53;4991332;28;20447;-81
2023/01/22 04:04:54;;;;;;;5.60;5.00;;;;;;;8.60;100.00;94808.22;4991102;28;21004;-80
2023/01/22 04:07:21;;;;;;;6.50;5.10;;;;;;;8.61;100.00;94803.81;4958132;28;20502;-81
2023/01/22 04:09:48;;;;;;;8.00;4.90;;;;;;;8.61;100.00;94809.06;5032954;28;20491;-80
2023/01/22 04:12:14;;;;;;;6.40;5.13;;;;;;;8.55;100.00;94820.84;5014440;28;20936;-80
2023/01/22 04:14:41;;;;;;;8.37;6.27;;;;;;;8.54;100.00;94823.56;5032577;28;20534;-80
2023/01/22 04:17:10;;;;;;;7.13;5.40;;;;;;;8.50;100.00;94820.38;4998800;28;20440;-81
2023/01/22 04:19:36;;;;;;;5.93;4.90;;;;;;;8.50;99.48;94822.97;5033688;28;20449;-81
2023/01/22 04:22:03;;;;;;;5.53;5.03;;;;;;;8.50;98.91;94825.59;5034122;28;20453;-79
2023/01/22 04:24:30;;;;;;;8.20;4.70;;;;;;;8.47;99.45;94833.69;5015419;28;20566;-78
2023/01/22 04:26:57;;;;;;;5.60;4.63;;;;;;;8.50;98.80;94838.66;5033707;28;20465;-79
2023/01/22 04:29:23;;;;;;;7.13;5.47;;;;;;;8.50;98.77;94836.06;5033876;28;20832;-78
2023/01/22 04:31:50;;;;;;;9.20;5.03;;;;;;;8.44;98.90;94831.31;5034048;28;20458;-78
2023/01/22 04:34:18;;;;;;;7.57;5.47;;;;;;;8.46;99.45;94834.63;5030697;28;20463;-79
2023/01/22 04:36:45;;;;;;;6.80;5.50;;;;;;;8.43;99.19;94845.31;5032494;28;20506;-78
2023/01/22 04:39:12;;;;;;;9.20;4.73;;;;;;;8.46;98.69;94846.88;5032935;28;20448;-79
2023/01/22 04:41:39;;;;;;;6.00;5.03;;;;;;;8.44;99.33;94852.22;5032504;28;20510;-78
2023/01/22 04:44:05;;;;;;;6.77;5.50;;;;;;;8.40;98.74;94861.25;4997623;28;20454;-79
2023/01/22 04:46:32;;;;;;;8.37;5.63;;;;;;;8.34;99.22;94846.00;5032365;28;20529;-80
2023/01/22 04:48:59;;;;;;;7.43;5.87;;;;;;;8.35;98.79;94858.97;5032341;28;20443;-78
2023/01/22 04:51:27;;;;;;;10.40;5.83;;;;;;;8.32;99.85;94860.94;5032463;28;20448;-79
2023/01/22 04:53:54;;;;;;;7.30;5.80;;;;;;;8.26;99.72;94866.66;4997468;28;20966;-79
2023/01/22 04:56:21;;;;;;;9.57;5.23;;;;;;;8.19;100.00;94863.69;5032492;28;20785;-79
2023/01/22 04:58:48;;;;;;;8.70;5.93;;;;;;;8.24;100.00;94863.31;5032237;28;20842;-79
2023/01/22 05:01:15;;;;;;;5.67;4.73;;;;;;;8.23;100.00;94872.13;4997830;28;20447;-79
2023/01/22 05:03:42;;;;;;;9.70;5.60;;;;;;;8.17;100.00;94872.59;5032065;28;20962;-79
2023/01/22 05:06:08;;;;;;;6.43;5.70;;;;;;;8.14;100.00;94880.66;5032426;28;20486;-79
2023/01/22 05:08:36;;;;;;;7.47;6.77;;;;;;;8.10;100.00;94880.06;5031983;28;20456;-78
2023/01/22 05:11:03;;;;;;;6.87;6.13;;;;;;;8.09;100.00;94891.44;5032164;28;20459;-78
2023/01/22 05:13:30;;;;;;;7.17;5.90;;;;;;;8.06;100.00;94895.13;5032205;28;20444;-79
2023/01/22 05:15:57;;;;;;;8.27;5.77;;;;;;;8.08;100.00;94895.84;5032272;28;20454;-78
2023/01/22 05:18:24;;;;;;;6.60;5.90;;;;;;;8.11;100.00;94896.59;5032062;28;20463;-79
2023/01/22 05:20:50;;;;;;;8.40;6.17;;;;;;;8.07;100.00;94904.63;4997500;28;20448;-79
2023/01/22 05:23:17;;;;;;;9.33;5.93;;;;;;;8.06;100.00;94904.75;5035044;28;20832;-84
2023/01/22 05:25:49;;;;;;;7.53;6.30;;;;;;;8.04;100.00;94910.09;5048290;28;20864;-79
2023/01/22 05:28:16;;;;;;;7.90;5.40;;;;;;;8.02;100.00;94911.97;5051995;28;20450;-78
2023/01/22 05:30:42;;;;;;;9.70;6.37;;;;;;;8.07;100.00;94917.69;5046141;28;20455;-78
2023/01/22 05:33:09;;;;;;;7.23;4.90;;;;;;;8.16;100.00;94925.81;5032733;28;20439;-79
2023/01/22 05:35:36;;;;;;;6.10;5.50;;;;;;;8.24;100.00;94928.69;5046628;28;20446;-79
2023/01/22 05:41:44;;;;;;;8.33;5.50;;;;;;;8.17;100.00;94943.16;5037494;28;20420;-78
2023/01/22 05:44:12;;;;;;;7.97;5.20;;;;;;;8.12;100.00;94947.91;5046997;28;20443;-78
2023/01/22 05:46:38;;;;;;;7.83;5.50;;;;;;;7.92;100.00;94954.59;5055883;28;20494;-78
2023/01/22 05:49:06;;;;;;;8.27;6.73;;;;;;;7.97;100.00;94955.06;5038740;28;20437;-78
2023/01/22 05:51:33;;;;;;;7.70;5.67;;;;;;;8.11;100.00;94957.53;5045968;28;20467;-79
2023/01/22 05:54:15;;;;;;;8.87;7.97;;;;;;;7.84;100.00;94947.31;5051179;28;20436;-79
2023/01/22 05:56:43;;;;;;;9.57;7.00;;;;;;;8.01;100.00;94965.19;5056532;28;20435;-79
2023/01/22 05:59:12;;;;;;;9.47;6.30;;;;;;;8.08;100.00;94961.16;5056414;28;20447;-79
2023/01/22 06:01:38;;;;;;;10.73;7.60;;;;;;;8.15;100.00;94963.34;5056864;28;20488;-80
2023/01/22 06:04:05;;;;;;;18.03;9.10;;;;;;;8.02;100.00;94963.41;5056404;28;20502;-79
2023/01/22 06:06:32;;;;;;;20.90;12.80;;;;;;;8.13;100.00;94967.88;5056488;28;20470;-79
2023/01/22 06:08:59;;;;;;;13.23;10.07;;;;;;;8.25;100.00;94978.22;5040378;28;20435;-79
2023/01/22 06:11:26;;;;;;;11.77;9.73;;;;;;;8.34;100.00;94976.72;5063682;28;20459;-79
2023/01/22 06:13:54;;;;;;;7.70;6.67;;;;;;;8.35;100.00;94981.00;5074311;28;20431;-83
2023/01/22 06:16:21;;;;;;;9.77;7.80;;;;;;;8.38;100.00;94989.50;5079325;28;20420;-81
2023/01/22 06:18:49;;;;;;;28.33;16.33;;;;;;;8.34;100.00;94989.81;5074580;28;20455;-80
2023/01/22 06:21:16;;;;;;;20.47;14.60;;;;;;;8.41;100.00;94992.81;5060869;28;20467;-80
2023/01/22 06:23:43;;;;;;;23.47;14.97;;;;;;;8.43;100.00;94998.78;5060113;28;20474;-81
2023/01/22 06:26:09;;;;;;;21.47;14.47;;;;;;;8.25;100.00;95001.75;5058579;28;20494;-80
2023/01/22 06:28:36;;;;;;;24.43;15.10;;;;;;;8.22;100.00;94991.53;5059868;28;20451;-80
2023/01/22 06:31:06;;;;;;;19.00;14.00;;;;;;;8.37;100.00;95002.66;5057387;28;20432;-80
2023/01/22 06:33:34;;;;;;;36.67;20.77;;;;;;;8.47;100.00;95011.50;5016627;28;20480;-81
2023/01/22 06:36:01;;;;;;;42.30;24.33;;;;;;;8.46;100.00;95015.06;5058531;28;20476;-81
2023/01/22 06:38:29;;;;;;;37.70;25.60;;;;;;;8.51;100.00;95019.94;5057910;28;20447;-80
2023/01/22 06:40:58;;;;;;;41.70;25.90;;;;;;;8.59;100.00;95018.41;5056583;28;20443;-80
2023/01/22 06:43:26;;;;;;;44.73;24.47;;;;;;;8.65;100.00;95023.19;5045511;28;20433;-81
2023/01/22 06:45:53;;;;;;;26.07;17.67;;;;;;;8.78;100.00;95024.88;5036299;28;20489;-81
2023/01/22 06:48:22;;;;;;;19.97;14.20;;;;;;;8.85;100.00;95019.06;5046666;28;20446;-81
2023/01/22 06:50:48;;;;;;;25.03;16.13;;;;;;;8.95;100.00;95024.41;5036028;28;20458;-84
2023/01/22 06:53:15;;;;;;;20.53;13.00;;;;;;;9.06;100.00;95024.47;5036197;28;20455;-82
2023/01/22 06:55:42;;;;;;;18.13;13.47;;;;;;;9.18;100.00;95036.59;5035227;28;20956;-80
2023/01/22 06:58:09;;;;;;;20.43;15.33;;;;;;;9.25;100.00;95032.56;5046777;28;20923;-83
2023/01/22 07:00:35;;;;;;;21.50;15.20;;;;;;;9.48;100.00;95037.78;5035155;28;20843;-80
2023/01/22 07:03:06;;;;;;;16.80;11.57;;;;;;;9.61;100.00;95041.97;5038434;28;20441;-79
2023/01/22 07:05:35;;;;;;;10.77;7.97;;;;;;;9.68;100.00;95044.09;5037823;28;20521;-80
2023/01/22 07:08:02;;;;;;;9.93;7.03;;;;;;;9.71;99.75;95038.59;5046560;28;20449;-80
2023/01/22 07:10:29;;;;;;;10.23;6.60;;;;;;;9.76;98.69;95046.94;5054680;28;20837;-80
2023/01/22 07:12:57;;;;;;;8.97;6.50;;;;;;;9.80;98.04;95045.72;5052792;28;20465;-80
2023/01/22 07:15:24;;;;;;;25.50;21.63;;;;;;;9.72;96.33;95041.09;5054271;28;20958;-80
2023/01/22 07:17:52;;;;;;;31.30;27.83;;;;;;;9.77;96.83;95054.66;5049325;28;20445;-80
2023/01/22 07:20:19;;;;;;;15.60;14.07;;;;;;;9.81;96.56;95061.31;5040152;28;20510;-80
2023/01/22 07:22:47;;;;;;;9.47;8.50;;;;;;;9.83;97.10;95048.09;5038048;28;20992;-81
2023/01/22 07:25:14;;;;;;;9.00;6.90;;;;;;;9.89;97.53;95052.88;5033555;28;20482;-80
2023/01/22 07:27:41;;;;;;;11.37;8.17;;;;;;;9.95;96.64;95055.00;5033704;28;20453;-80
2023/01/22 07:30:09;;;;;;;9.10;7.73;;;;;;;10.04;98.46;95054.25;5033336;28;20474;-81
2023/01/22 07:32:36;;;;;;;10.87;7.60;;;;;;;10.02;97.23;95052.72;5033675;28;20488;-81
2023/01/22 07:35:03;;;;;;;11.97;8.47;;;;;;;10.00;96.70;95054.63;5033548;28;20847;-81
2023/01/22 07:37:30;;;;;;;13.90;8.33;;;;;;;9.98;97.81;95061.78;5033737;28;20480;-81
2023/01/22 07:39:58;;;;;;;13.73;9.60;;;;;;;9.85;96.99;95046.22;5033208;28;20446;-80
2023/01/22 07:42:25;;;;;;;11.93;7.90;;;;;;;9.86;97.53;95055.75;5033336;28;20941;-80
2023/01/22 07:44:51;;;;;;;16.70;10.23;;;;;;;9.81;97.41;95056.09;4982586;28;20962;-80
2023/01/22 07:47:18;;;;;;;10.63;8.57;;;;;;;9.78;97.54;95060.75;4998213;28;20612;-80
2023/01/22 07:49:45;;;;;;;12.83;8.93;;;;;;;9.72;96.89;95064.69;5033264;28;20449;-81
2023/01/22 07:52:12;;;;;;;12.00;9.27;;;;;;;9.70;97.80;95066.59;5033149;28;20456;-81
2023/01/22 07:54:38;;;;;;;12.07;9.00;;;;;;;9.67;98.86;95061.59;4982194;28;20454;-81
2023/01/22 07:57:07;;;;;;;13.67;9.70;;;;;;;9.70;98.83;95063.97;5033077;28;20450;-80
2023/01/22 07:59:34;;;;;;;25.50;14.03;;;;;;;9.77;98.64;95070.38;5033253;28;20442;-80
2023/01/22 08:02:01;;;;;;;30.17;19.50;;;;;;;9.78;98.15;95069.44;5032744;28;20450;-80
2023/01/22 08:04:28;;;;;;;16.50;10.00;;;;;;;9.52;98.54;95086.34;5033227;28;20446;-80
2023/01/22 08:06:55;;;;;;;28.60;20.37;;;;;;;9.32;100.00;95083.50;5032542;28;20486;-80
2023/01/22 08:09:24;;;;;;;43.03;22.27;;;;;;;8.99;100.00;95079.06;4982171;28;20447;-80
2023/01/22 08:11:52;;;;;;;43.17;23.73;;;;;;;9.07;100.00;95075.84;4998663;28;20504;-81
2023/01/22 08:14:20;;;;;;;44.30;29.03;;;;;;;8.95;100.00;95095.91;5032710;28;20481;-81
2023/01/22 08:16:47;;;;;;;47.00;30.93;;;;;;;8.68;100.00;95090.16;4997631;28;20494;-81
2023/01/22 08:19:14;;;;;;;44.63;28.00;;;;;;;8.32;100.00;95097.09;5032565;28;20453;-81
2023/01/22 08:21:41;;;;;;;47.00;32.37;;;;;;;8.30;100.00;95095.53;5032752;28;20453;-81
2023/01/22 08:24:09;;;;;;;51.23;33.60;;;;;;;8.28;100.00;95097.41;5032013;28;20456;-80
2023/01/22 08:26:38;;;;;;;49.40;35.07;;;;;;;8.16;100.00;95093.09;5032201;28;21064;-80
2023/01/22 08:29:04;;;;;;;55.57;36.77;;;;;;;8.30;100.00;95106.81;5032608;28;20543;-80
2023/01/22 08:31:33;;;;;;;47.60;30.97;;;;;;;8.42;100.00;95104.31;5032364;28;20447;-80
2023/01/22 08:34:00;;;;;;;52.03;32.90;;;;;;;8.58;100.00;95102.22;5032429;28;20523;-80
2023/01/22 08:36:26;;;;;;;49.97;32.40;;;;;;;8.58;100.00;95100.44;5032525;28;20453;-80
2023/01/22 08:38:53;;;;;;;50.10;34.90;;;;;;;8.67;100.00;95099.78;5032147;28;20442;-80
2023/01/22 08:41:20;;;;;;;40.87;30.07;;;;;;;8.82;100.00;95096.97;5032580;28;20459;-81
2023/01/22 08:43:47;;;;;;;43.20;27.83;;;;;;;8.87;100.00;95105.31;5032291;28;20452;-80
2023/01/22 08:46:14;;;;;;;48.03;29.30;;;;;;;8.90;100.00;95099.84;5032281;28;20485;-80
2023/01/22 08:48:43;;;;;;;41.93;27.47;;;;;;;8.77;100.00;95109.56;5032220;28;20450;-80
2023/01/22 08:51:10;;;;;;;42.30;28.13;;;;;;;8.89;100.00;95109.47;5032032;28;20528;-80
2023/01/22 08:53:37;;;;;;;49.70;29.73;;;;;;;8.96;100.00;95107.22;5032187;28;20526;-80
2023/01/22 08:56:04;;;;;;;44.50;29.33;;;;;;;8.98;100.00;95105.34;5032216;28;20440;-80
2023/01/22 08:58:31;;;;;;;39.27;27.03;;;;;;;9.13;100.00;95106.78;5032430;28;20452;-80
2023/01/22 09:00:58;;;;;;;36.17;24.07;;;;;;;9.22;100.00;95102.63;5036752;28;20452;-80
2023/01/22 09:03:25;;;;;;;40.30;28.00;;;;;;;9.28;100.00;95110.88;5032542;28;20894;-82
2023/01/22 09:05:53;;;;;;;37.90;25.97;;;;;;;9.32;100.00;95109.69;5032569;28;20460;-83
2023/01/22 09:08:20;;;;;;;45.00;27.50;;;;;;;9.38;100.00;95110.16;5040687;28;20445;-81
2023/01/22 09:10:47;;;;;;;38.43;26.40;;;;;;;9.52;100.00;95107.31;5018584;28;20460;-81
2023/01/22 09:13:14;;;;;;;34.17;25.90;;;;;;;9.64;100.00;95106.38;5053251;28;20451;-80
2023/01/22 09:15:41;;;;;;;35.00;23.43;;;;;;;9.71;100.00;95107.56;5056616;28;20445;-89
2023/01/22 09:18:08;;;;;;;32.27;22.87;;;;;;;9.71;100.00;95110.19;5046155;28;20465;-82
2023/01/22 09:20:34;;;;;;;32.83;22.77;;;;;;;9.81;100.00;95098.03;5036923;28;20449;-83
2023/01/22 09:23:03;;;;;;;29.47;23.23;;;;;;;9.96;100.00;95110.88;5036617;28;20453;-79
2023/01/22 09:25:30;;;;;;;40.33;27.47;;;;;;;10.10;100.00;95105.38;5037099;28;20481;-81
2023/01/22 09:27:58;;;;;;;40.43;23.90;;;;;;;10.22;100.00;95097.41;5036636;28;20495;-81
2023/01/22 09:30:26;;;;;;;38.77;25.20;;;;;;;10.32;100.00;95102.75;5051540;28;20495;-80
2023/01/22 09:32:53;;;;;;;35.53;26.87;;;;;;;10.40;100.00;95100.31;5056493;28;20429;-83
2023/01/22 09:35:19;;;;;;;36.87;24.93;;;;;;;10.41;100.00;95085.44;5056752;28;20487;-81
2023/01/22 09:37:46;;;;;;;26.90;19.67;;;;;;;10.45;100.00;95092.94;5057677;28;20450;-83
2023/01/22 09:40:25;;;;;;;21.17;13.37;;;;;;;10.52;100.00;95096.72;5022023;28;20445;-83
2023/01/22 09:42:54;;;;;;;24.47;14.13;;;;;;;10.57;100.00;95095.50;5056597;28;20441;-82
2023/01/22 09:45:25;;;;;;;18.20;14.13;;;;;;;10.66;99.86;95097.38;5056875;28;20464;-82
2023/01/22 09:47:57;;;;;;;19.80;14.23;;;;;;;10.77;99.61;95095.56;5056485;28;20964;-82
2023/01/22 09:50:26;;;;;;;20.73;16.20;;;;;;;10.75;98.36;95097.47;5056849;28;20445;-88
2023/01/22 09:52:55;;;;;;;22.40;16.70;;;;;;;10.75;98.08;95107.97;5056748;28;20850;-81
2023/01/22 09:55:28;;;;;;;44.77;26.07;;;;;;;10.74;97.90;95110.72;5056629;28;20441;-81
2023/01/22 09:57:56;;;;;;;36.70;24.30;;;;;;;10.81;98.51;95104.00;5056778;28;20901;-85
2023/01/22 10:00:27;;;;;;;42.20;27.70;;;;;;;10.77;98.35;95099.97;5053378;28;20484;-80
2023/01/22 10:02:58;;;;;;;34.70;25.73;;;;;;;10.65;99.33;95096.53;5043144;28;20441;-81
2023/01/22 10:05:31;;;;;;;28.13;18.13;;;;;;;10.57;100.00;95101.59;5050697;28;20442;-79
2023/01/22 10:08:05;;;;;;;26.27;17.07;;;;;;;10.55;100.00;95088.59;5048298;28;20515;-79
2023/01/22 10:10:34;;;;;;;18.63;13.93;;;;;;;10.60;100.00;95096.09;5003902;28;21156;-79
2023/01/22 10:13:10;;;;;;;19.67;13.20;;;;;;;10.60;100.00;95095.25;5015451;28;20447;-79
2023/01/22 10:15:38;;;;;;;18.97;14.00;;;;;;;10.45;100.00;95087.69;5049298;28;20818;-79
2023/01/22 10:18:16;;;;;;;21.47;13.43;;;;;;;10.54;100.00;95094.81;5055841;28;20449;-79
2023/01/22 10:20:43;;;;;;;15.93;12.20;;;;;;;10.57;100.00;95095.50;5055449;28;20453;-79
2023/01/22 10:23:18;;;;;;;14.13;10.23;;;;;;;10.50;100.00;95096.03;5055813;28;20453;-81
2023/01/22 10:25:46;;;;;;;13.37;10.70;;;;;;;10.64;100.00;95099.28;5050276;28;20496;-81
2023/01/22 10:28:15;;;;;;;11.60;8.90;;;;;;;10.76;100.00;95103.56;5003836;28;20485;-79
2023/01/22 10:30:47;;;;;;;16.23;9.40;;;;;;;10.71;100.00;95098.69;5054874;28;20456;-79
2023/01/22 10:33:17;;;;;;;14.13;9.30;;;;;;;10.85;100.00;95103.63;5044641;28;20442;-81
2023/01/22 10:35:47;;;;;;;13.67;9.50;;;;;;;10.84;100.00;95099.34;5045318;28;20456;-81
2023/01/22 10:38:25;;;;;;;128.67;62.67;;;;;;;10.85;100.00;95097.53;5055857;28;20445;-83
2023/01/22 10:40:58;;;;;;;21.17;13.63;;;;;;;10.88;100.00;95096.47;5055458;28;20456;-79
2023/01/22 10:43:32;;;;;;;33.47;20.63;;;;;;;10.96;100.00;95099.28;5052338;28;20803;-79
2023/01/22 10:46:04;;;;;;;62.60;30.13;;;;;;;10.92;100.00;95101.31;5034751;28;21007;-79
2023/01/22 10:48:31;;;;;;;80.37;39.50;;;;;;;10.79;100.00;95091.00;5038907;28;20493;-79
2023/01/22 10:51:08;;;;;;;35.63;21.10;;;;;;;10.91;100.00;95097.03;5034826;28;20500;-79
2023/01/22 10:53:37;;;;;;;44.33;27.10;;;;;;;10.98;100.00;95092.94;5034579;28;20538;-79
2023/01/22 10:56:10;;;;;;;26.60;17.43;;;;;;;11.06;100.00;95102.81;5038147;28;20810;-79
2023/01/22 10:58:39;;;;;;;25.53;15.90;;;;;;;11.20;100.00;95093.78;5054486;28;20425;-83
2023/01/22 11:01:26;;;;;;;25.33;15.23;;;;;;;11.39;100.00;95096.53;5054796;28;20853;-80
2023/01/22 11:03:53;;;;;;;18.03;13.17;;;;;;;11.53;100.00;95101.41;5019419;28;20441;-80
2023/01/22 11:06:27;;;;;;;17.17;11.90;;;;;;;11.56;98.72;95105.59;5053658;28;20499;-80
2023/01/22 11:09:01;;;;;;;20.00;14.43;;;;;;;11.64;97.26;95104.00;5053713;28;20541;-79
2023/01/22 11:11:36;;;;;;;31.60;20.47;;;;;;;11.65;96.70;95105.66;5054017;28;20434;-80
2023/01/22 11:14:10;;;;;;;17.13;12.70;;;;;;;11.68;96.76;95110.66;5053660;28;20873;-82
2023/01/22 11:16:40;;;;;;;35.73;22.23;;;;;;;11.71;95.16;95117.44;5053930;28;20449;-82
2023/01/22 11:19:13;;;;;;;14.77;9.90;;;;;;;11.73;94.87;95111.06;5054144;28;20430;-77
2023/01/22 11:21:45;;;;;;;14.03;8.70;;;;;;;11.72;95.41;95112.03;5053668;28;20459;-77
2023/01/22 11:24:14;;;;;;;17.43;10.37;;;;;;;11.78;94.96;95105.44;5053274;28;20485;-77
2023/01/22 11:27:00;;;;;;;14.00;10.00;;;;;;;11.68;95.38;95110.66;5053530;28;20456;-76
2023/01/22 11:29:48;;;;;;;12.17;8.10;;;;;;;11.83;95.11;95107.69;5053705;28;20437;-78
2023/01/22 11:32:46;;;;;;;9.23;7.40;;;;;;;11.95;94.35;95107.47;5053886;28;20449;-79
2023/01/22 11:35:24;;;;;;;10.77;7.97;;;;;;;11.82;94.96;95098.97;5053252;28;20447;-78
2023/01/22 11:38:12;;;;;;;9.90;8.33;;;;;;;11.92;95.20;95099.00;5000859;28;20438;-78
2023/01/22 11:40:48;;;;;;;9.40;7.40;;;;;;;12.03;94.06;95106.78;5053687;28;20450;-79
2023/01/22 11:43:32;;;;;;;10.83;7.70;;;;;;;12.18;94.14;95113.38;5052963;28;20451;-79
2023/01/22 11:46:23;;;;;;;7.30;5.37;;;;;;;12.23;93.10;95105.06;5053281;28;20458;-79
2023/01/22 11:49:05;;;;;;;12.17;5.13;;;;;;;12.26;90.37;95104.78;5053141;28;20492;-80